Time;durP1;ratioP1;P1;durP2;ratioP2;P2;SDS_P1;SDS_P2;PMS_P1;PMS_P2;Temp;Humidity;BMP_temperature;BMP_pressure;BME280_temperature;BME280_humidity;BME280_pressure;Samples;Min_cycle;Max_cycle;Signal;HPM_P1;HPM_P2
2024/02/13 00:00:09;;;;;;;5.80;3.10;;;;;;;-147.86;100.00;31304.27;105267;1261;72627;-59
2024/02/13 00:02:39;;;;;;;9.40;3.00;;;;;;;-147.86;100.00;31476.44;105198;1267;59761;-58
2024/02/13 00:05:08;;;;;;;14.00;3.70;;;;;;;-147.86;100.00;31775.11;105277;1265;59740;-60
2024/02/13 00:07:38;;;;;;;9.20;3.80;;;;;;;-147.86;100.00;32161.27;105265;1270;71831;-59
2024/02/13 00:10:08;;;;;;;9.30;3.90;;;;;;;-147.86;100.00;32525.60;105279;1265;64320;-55
2024/02/13 00:12:37;;;;;;;12.90;3.30;;;;;;;-147.86;100.00;32948.55;105273;1274;72622;-59
2024/02/13 00:15:06;;;;;;;13.50;3.40;;;;;;;-147.86;100.00;33452.40;105273;1266;61683;-59
2024/02/13 00:17:34;;;;;;;9.30;3.60;;;;;;;-147.86;100.00;33877.02;105233;1266;59698;-56
2024/02/13 00:20:06;;;;;;;10.50;4.00;;;;;;;-147.86;100.00;34363.40;105232;1261;71859;-57
2024/02/13 00:22:35;;;;;;;10.70;4.30;;;;;;;-147.86;100.00;34835.79;105260;1266;64357;-60
2024/02/13 00:25:05;;;;;;;10.10;3.80;;;;;;;-147.86;100.00;35445.39;105308;1264;72517;-60
2024/02/13 00:27:35;;;;;;;12.10;4.10;;;;;;;-147.86;100.00;35910.86;105207;1267;59736;-58
2024/02/13 00:30:04;;;;;;;14.00;3.60;;;;;;;-147.86;100.00;36485.07;105292;1266;59673;-58
2024/02/13 00:32:32;;;;;;;13.20;3.70;;;;;;;-147.86;100.00;37323.26;105254;1261;71754;-58
2024/02/13 00:35:02;;;;;;;11.90;4.10;;;;;;;-147.86;100.00;37666.96;105248;1266;63229;-59
2024/02/13 00:37:30;;;;;;;6.90;3.80;;;;;;;-147.86;100.00;37909.01;105218;1270;72625;-59
2024/02/13 00:39:58;;;;;;;11.00;3.90;;;;;;;-147.86;100.00;38312.59;105188;1266;60129;-59
2024/02/13 00:42:26;;;;;;;10.90;3.60;;;;;;;-147.86;100.00;38630.18;105252;1266;59659;-60
2024/02/13 00:44:54;;;;;;;8.30;4.20;;;;;;;-147.86;100.00;38989.63;105228;1261;71779;-59
2024/02/13 00:47:22;;;;;;;18.80;4.40;;;;;;;-147.86;100.00;39399.97;105279;1261;63419;-60
2024/02/13 00:49:51;;;;;;;11.80;4.40;;;;;;;-147.86;100.00;39729.77;105209;1264;71369;-60
2024/02/13 00:52:19;;;;;;;12.90;4.90;;;;;;;-147.86;100.00;40040.80;105224;1261;60828;-58
2024/02/13 00:54:47;;;;;;;11.10;4.70;;;;;;;-147.86;100.00;40281.44;105304;1261;59573;-59
2024/02/13 00:57:15;;;;;;;13.30;4.20;;;;;;;-147.86;100.00;40522.48;105215;1266;73002;-57
2024/02/13 00:59:43;;;;;;;8.40;4.00;;;;;;;-147.86;100.00;40725.96;105250;1261;64418;-60
2024/02/13 01:02:10;;;;;;;10.70;4.90;;;;;;;-147.86;100.00;40990.51;105284;1261;71713;-60
2024/02/13 01:04:38;;;;;;;15.40;4.80;;;;;;;-147.86;100.00;41476.22;105231;1260;59999;-61
2024/02/13 01:07:06;;;;;;;12.10;4.30;;;;;;;-147.86;100.00;41630.43;105255;1264;59746;-58
2024/02/13 01:10:17;;;;;;;21.00;4.60;;;;;;;-147.86;100.00;44522.85;102733;1292;601061;-58
2024/02/13 01:12:46;;;;;;;9.10;4.10;;;;;;;-147.86;100.00;32921.87;105022;1266;60462;-59
2024/02/13 01:15:14;;;;;;;9.30;4.20;;;;;;;-147.86;100.00;35766.71;104901;1270;59338;-58
2024/02/13 01:17:43;;;;;;;13.20;4.20;;;;;;;-147.86;100.00;37297.09;104896;1266;70969;-59
2024/02/13 01:20:12;;;;;;;13.90;5.10;;;;;;;-147.86;100.00;38177.68;104914;1266;63184;-57
2024/02/13 01:22:39;;;;;;;13.00;4.80;;;;;;;-147.86;100.00;38885.98;104872;1266;72660;-58
2024/02/13 01:25:10;;;;;;;13.90;4.10;;;;;;;-147.86;100.00;39354.21;104995;1263;247076;-56
2024/02/13 01:27:38;;;;;;;9.40;4.30;;;;;;;-147.86;100.00;39850.66;105104;1263;59308;-59
2024/02/13 01:30:09;;;;;;;9.70;3.80;;;;;;;-147.86;100.00;40166.02;105039;1267;72292;-58
2024/02/13 01:32:40;;;;;;;16.00;4.20;;;;;;;-147.86;100.00;40482.18;105160;1263;63224;-58
2024/02/13 01:35:09;;;;;;;14.60;4.40;;;;;;;-147.86;100.00;40635.18;105183;1267;72600;-58
2024/02/13 01:37:37;;;;;;;9.80;4.30;;;;;;;-147.86;100.00;40801.88;105191;1263;60477;-59
2024/02/13 01:40:05;;;;;;;9.90;4.40;;;;;;;-147.86;100.00;40936.12;105915;1254;59625;-58
2024/02/13 01:42:37;;;;;;;10.50;4.40;;;;;;;-147.86;100.00;41022.99;105934;1256;73009;-55
2024/02/13 01:45:12;;;;;;;7.80;4.40;;;;;;;-147.86;100.00;41071.92;105958;1252;63151;-58
2024/02/13 01:47:42;;;;;;;12.70;4.30;;;;;;;-147.86;100.00;41095.40;105963;1252;71465;-60
2024/02/13 01:50:13;;;;;;;12.50;4.50;;;;;;;-147.86;100.00;41093.83;105756;1253;60066;-58
2024/02/13 01:52:42;;;;;;;9.90;4.40;;;;;;;-147.86;100.00;41053.13;105851;1253;59967;-58
2024/02/13 01:55:12;;;;;;;13.20;4.20;;;;;;;-147.86;100.00;40909.50;105733;1258;72808;-60
2024/02/13 01:57:40;;;;;;;18.40;4.70;;;;;;;-147.86;100.00;40663.74;105692;1254;63060;-60
2024/02/13 02:00:13;;;;;;;13.40;5.00;;;;;;;-147.86;100.00;40274.40;105697;1257;72604;-60
2024/02/13 02:02:42;;;;;;;16.40;5.10;;;;;;;-147.86;100.00;39791.19;105697;1253;59820;-59
2024/02/13 02:05:13;;;;;;;19.50;5.20;;;;;;;-147.86;100.00;39292.79;105877;1253;59691;-58
2024/02/13 02:07:42;;;;;;;14.60;5.50;;;;;;;-147.86;100.00;38709.96;105857;1253;71818;-59
2024/02/13 02:10:10;;;;;;;15.80;5.40;;;;;;;-147.86;100.00;37979.79;105860;1253;63185;-59
2024/02/13 02:12:39;;;;;;;13.60;4.90;;;;;;;-147.86;100.00;37067.17;105713;1253;70877;-57
2024/02/13 02:15:10;;;;;;;10.40;4.80;;;;;;;-147.86;100.00;35982.39;105911;1254;59744;-59
2024/02/13 02:17:39;;;;;;;11.40;5.30;;;;;;;-147.86;100.00;34894.40;105738;1257;60455;-59
2024/02/13 02:20:07;;;;;;;16.30;6.00;;;;;;;-147.86;100.00;33692.64;105900;1256;73039;-59
2024/02/13 02:22:35;;;;;;;17.00;4.80;;;;;;;-147.86;100.00;32406.89;105866;1253;63189;-59
2024/02/13 02:25:07;;;;;;;12.40;4.60;;;;;;;-147.86;100.00;31269.92;105798;1257;71311;-58
2024/02/13 02:27:38;;;;;;;9.50;4.40;;;;;;;-147.86;100.00;30052.88;105692;1257;61604;-58
2024/02/13 02:30:07;;;;;;;12.20;5.10;;;;;;;-147.86;100.00;28718.39;105669;1257;60499;-60
2024/02/13 02:32:34;;;;;;;11.40;4.60;;;;;;;-147.86;100.00;27593.80;105720;1253;71761;-58
2024/02/13 02:35:03;;;;;;;11.90;4.40;;;;;;;-147.86;100.00;26425.47;105674;1257;64762;-61
2024/02/13 02:37:31;;;;;;;15.50;4.80;;;;;;;-147.86;100.00;25228.25;105808;1253;71049;-55
2024/02/13 02:39:59;;;;;;;11.30;4.80;;;;;;;-147.86;100.00;24235.21;105666;1253;61645;-60
2024/02/13 02:42:27;;;;;;;8.40;4.60;;;;;;;-147.86;100.00;23164.11;105850;1253;60001;-58
2024/02/13 02:44:54;;;;;;;17.00;4.10;;;;;;;-147.86;100.00;22060.98;105672;1253;72070;-58
2024/02/13 02:47:23;;;;;;;8.20;4.30;;;;;;;-147.86;100.00;21071.85;105859;1253;64369;-55
2024/02/13 02:49:50;;;;;;;12.80;4.10;;;;;;;-147.86;100.00;20320.83;105837;1254;71391;-57
2024/02/13 02:52:20;;;;;;;10.80;3.80;;;;;;;-147.86;100.00;19462.92;105828;1253;61662;-57
2024/02/13 02:54:48;;;;;;;13.30;4.10;;;;;;;-147.86;100.00;18291.58;105770;1254;60492;-60
2024/02/13 02:57:15;;;;;;;10.60;4.00;;;;;;;-147.86;100.00;17193.33;105850;1253;73422;-60
2024/02/13 02:59:45;;;;;;;5.50;3.50;;;;;;;-147.86;100.00;15899.79;105827;1253;63097;-59
2024/02/13 03:02:14;;;;;;;12.70;4.30;;;;;;;-147.86;100.00;14757.12;105840;1253;71371;-60
2024/02/13 03:04:42;;;;;;;9.80;4.10;;;;;;;-147.86;100.00;13460.12;105816;1253;60469;-61
2024/02/13 03:07:10;;;;;;;5.80;3.30;;;;;;;-147.86;100.00;12243.97;105856;1257;59969;-58
2024/02/13 03:09:38;;;;;;;5.80;3.60;;;;;;;-147.86;100.00;11100.44;105858;1253;72986;-60
2024/02/13 03:12:06;;;;;;;8.10;2.70;;;;;;;-147.86;100.00;9904.05;105817;1257;64526;-56
2024/02/13 03:14:33;;;;;;;8.00;3.70;;;;;;;-147.86;100.00;8652.53;105933;1254;71170;-59
2024/02/13 03:17:01;;;;;;;6.40;3.60;;;;;;;-147.86;100.00;7634.60;105809;1256;59747;-59
2024/02/13 03:19:30;;;;;;;10.40;3.90;;;;;;;-147.86;100.00;7074.32;105853;1253;59621;-57
2024/02/13 03:21:58;;;;;;;6.00;3.20;;;;;;;-147.86;100.00;7845.06;105840;1253;71876;-58
2024/02/13 03:24:26;;;;;;;7.10;3.40;;;;;;;-147.86;100.00;8281.09;105848;1258;63155;-59
2024/02/13 03:26:55;;;;;;;9.10;3.30;;;;;;;-147.86;100.00;9455.62;105893;1253;72704;-59
2024/02/13 03:56:03;;;;;;;9.90;3.70;;;;;;;-147.86;100.00;24323.68;103719;1284;599621;-60
2024/02/13 03:58:31;;;;;;;7.80;3.20;;;;;;;-147.86;100.00;5824.55;104908;1269;61719;-58
2024/02/13 04:01:00;;;;;;;6.80;3.70;;;;;;;-147.86;100.00;4682.88;105087;1264;59314;-59
2024/02/13 04:03:28;;;;;;;12.10;4.70;;;;;;;-147.86;100.00;3762.13;105108;1264;71014;-60
2024/02/13 04:05:56;;;;;;;6.40;3.60;;;;;;;-147.86;100.00;2855.55;105012;1269;63137;-60
2024/02/13 04:08:24;;;;;;;13.60;4.00;;;;;;;-147.86;100.00;1880.22;105050;1270;71362;-58
2024/02/13 04:10:52;;;;;;;8.90;3.50;;;;;;;-147.86;100.00;833.08;105772;1257;259691;-54
2024/02/13 04:13:20;;;;;;;8.40;4.20;;;;;;;-147.86;100.00;71.24;105995;1250;59989;-60
2024/02/13 04:15:48;;;;;;;12.20;4.40;;;;;;;-147.86;100.00;-652.48;105994;1255;72283;-58
2024/02/13 04:18:19;;;;;;;17.90;4.90;;;;;;;-147.86;100.00;-1486.77;105973;1251;63199;-58
2024/02/13 04:20:46;;;;;;;8.10;4.30;;;;;;;-147.86;100.00;-1969.43;105989;1252;71381;-59
2024/02/13 04:23:14;;;;;;;7.10;4.10;;;;;;;-147.86;100.00;-2571.64;105943;1251;61793;-58
2024/02/13 04:25:42;;;;;;;10.40;4.10;;;;;;;-147.86;100.00;-3345.95;105973;1257;59640;-59
2024/02/13 04:28:10;;;;;;;7.90;4.40;;;;;;;-147.86;100.00;-3638.81;105974;1251;71796;-58
2024/02/13 04:30:40;;;;;;;10.20;4.30;;;;;;;-147.86;100.00;-4127.06;106014;1251;64550;-59
2024/02/13 04:33:09;;;;;;;10.70;4.60;;;;;;;-147.86;100.00;-4829.86;105974;1257;71509;-60
2024/02/13 04:35:38;;;;;;;7.60;4.20;;;;;;;-147.86;100.00;-5065.39;106015;1254;60374;-60
2024/02/13 04:38:05;;;;;;;9.80;4.10;;;;;;;-147.86;100.00;-5207.73;106033;1256;59958;-58
2024/02/13 04:40:33;;;;;;;4.00;3.20;;;;;;;-147.86;100.00;-5548.06;105943;1251;71884;-57
2024/02/13 04:43:01;;;;;;;7.30;4.00;;;;;;;-147.86;100.00;-6202.30;105966;1257;63113;-59
2024/02/13 04:45:29;;;;;;;9.20;3.80;;;;;;;-147.86;100.00;-6483.76;105936;1256;70801;-57
2024/02/13 04:47:56;;;;;;;10.90;4.00;;;;;;;-147.86;100.00;-6861.84;105996;1251;60038;-57
2024/02/13 04:50:26;;;;;;;14.90;3.60;;;;;;;-147.86;100.00;-7116.58;106012;1256;59714;-60
2024/02/13 04:52:55;;;;;;;9.90;3.30;;;;;;;-147.86;100.00;-7508.10;105982;1251;71687;-60
2024/02/13 04:55:24;;;;;;;12.00;3.40;;;;;;;-147.86;100.00;-7670.84;105953;1251;64449;-59
2024/02/13 04:57:52;;;;;;;9.30;3.90;;;;;;;-147.86;100.00;-7942.91;105963;1258;71353;-57
2024/02/13 05:00:28;;;;;;;8.30;3.50;;;;;;;-147.86;100.00;-8034.90;105933;1251;59695;-58
2024/02/13 05:55:26;;;;;;;14.40;4.10;;;;;;;-147.86;100.00;868.27;102738;1292;600429;-58
2024/02/13 05:57:54;;;;;;;9.40;3.90;;;;;;;-147.86;100.00;-17609.17;105071;1269;61703;-58
2024/02/13 06:00:24;;;;;;;7.70;4.60;;;;;;;-147.86;100.00;-17609.17;105064;1263;59228;-59
2024/02/13 06:02:55;;;;;;;12.30;4.20;;;;;;;-147.86;100.00;-17609.17;105105;1264;72181;-58
2024/02/13 06:05:23;;;;;;;11.00;5.10;;;;;;;-147.86;100.00;-17609.17;105117;1263;63397;-59
2024/02/13 06:07:51;;;;;;;15.20;5.30;;;;;;;-147.86;100.00;-17609.17;105570;1257;71458;-57
2024/02/13 06:10:19;;;;;;;9.30;4.30;;;;;;;-147.86;100.00;-17609.17;105436;1259;62372;-58
2024/02/13 06:12:47;;;;;;;16.40;5.30;;;;;;;-147.86;100.00;-17609.17;105700;1259;59235;-58
2024/02/13 06:15:15;;;;;;;18.10;5.70;;;;;;;-147.86;100.00;-17609.17;105624;1253;71002;-58
2024/02/13 06:17:45;;;;;;;11.30;5.50;;;;;;;-147.86;100.00;-17609.17;105540;1253;63646;-60
2024/02/13 06:20:14;;;;;;;20.10;6.30;;;;;;;-147.86;100.00;-17609.17;105567;1256;71399;-59
2024/02/13 06:22:42;;;;;;;12.90;5.60;;;;;;;-147.86;100.00;-17609.17;105687;1254;61628;-61
2024/02/13 06:25:11;;;;;;;20.10;5.40;;;;;;;-147.86;100.00;-17609.17;105653;1259;59622;-55
2024/02/13 06:27:38;;;;;;;16.30;6.30;;;;;;;-147.86;100.00;-17609.17;105660;1253;72959;-60
2024/02/13 06:30:07;;;;;;;12.60;6.70;;;;;;;-147.86;100.00;-17609.17;105662;1253;64486;-58
2024/02/13 06:32:36;;;;;;;19.70;7.00;;;;;;;-147.86;100.00;-17609.17;105685;1259;72608;-58
2024/02/13 06:35:05;;;;;;;13.10;6.40;;;;;;;-147.86;100.00;-17609.17;105679;1256;59818;-60
2024/02/13 06:37:33;;;;;;;16.70;6.20;;;;;;;-147.86;100.00;-17609.17;109432;1253;59214;-60
2024/02/13 06:40:01;;;;;;;21.30;7.50;;;;;;;-147.86;100.00;-17609.17;109447;1256;71733;-57
2024/02/13 06:42:31;;;;;;;24.20;7.00;;;;;;;-147.86;100.00;-17609.17;109436;1253;64871;-58
2024/02/13 06:44:59;;;;;;;26.50;7.90;;;;;;;-147.86;100.00;-17609.17;109416;1254;72619;-58
2024/02/13 06:47:26;;;;;;;20.40;7.30;;;;;;;-147.86;100.00;-17609.17;109424;1253;60345;-60
2024/02/13 06:49:54;;;;;;;20.60;5.80;;;;;;;-147.86;100.00;-17609.17;109472;1253;58801;-60
2024/02/13 06:55:28;;;;;;;17.10;6.80;;;;;;;-147.86;100.00;-586.06;102816;1294;600295;-57
2024/02/13 06:57:56;;;;;;;20.70;7.50;;;;;;;-147.86;100.00;-17609.17;105107;1270;59854;-60
2024/02/13 07:00:26;;;;;;;15.90;7.50;;;;;;;-147.86;100.00;-17609.17;105084;1264;60179;-59
2024/02/13 07:02:54;;;;;;;13.10;6.30;;;;;;;-147.86;100.00;-17609.17;105089;1266;70261;-59
2024/02/13 07:05:23;;;;;;;20.90;6.90;;;;;;;-147.86;100.00;-17609.17;105086;1263;63282;-61
2024/02/13 07:07:51;;;;;;;19.10;7.60;;;;;;;-147.86;100.00;-17609.17;105149;1269;72606;-58
2024/02/13 07:10:19;;;;;;;17.10;8.00;;;;;;;-147.86;100.00;-17609.17;105006;1263;274678;-59
2024/02/13 07:12:47;;;;;;;16.20;7.90;;;;;;;-147.86;100.00;-17609.17;105573;1263;59412;-58
2024/02/13 07:15:14;;;;;;;14.60;6.80;;;;;;;-147.86;100.00;-17609.17;105532;1263;70153;-57
2024/02/13 07:17:43;;;;;;;17.90;7.00;;;;;;;-147.86;100.00;-17609.17;105287;1260;63123;-59
2024/02/13 07:20:26;;;;;;;14.50;7.20;;;;;;;-147.86;100.00;-17609.17;105221;1261;73081;-58
2024/02/13 07:22:54;;;;;;;18.50;7.90;;;;;;;-147.86;100.00;-17609.17;105370;1260;59681;-61
2024/02/13 07:25:22;;;;;;;14.90;8.10;;;;;;;-147.86;100.00;-17609.17;105360;1263;59752;-58
2024/02/13 07:27:50;;;;;;;18.60;9.20;;;;;;;-147.86;100.00;-17609.17;105280;1264;71103;-59
2024/02/13 07:30:17;;;;;;;19.20;8.20;;;;;;;-147.86;100.00;-17609.17;105596;1261;63304;-60
2024/02/13 07:32:46;;;;;;;16.90;7.50;;;;;;;-147.86;100.00;-17609.17;105499;1261;71514;-60
2024/02/13 07:35:14;;;;;;;15.20;7.70;;;;;;;-147.86;100.00;-17609.17;105534;1260;60463;-60
2024/02/13 07:37:43;;;;;;;21.70;7.80;;;;;;;-147.86;100.00;-17609.17;105233;1264;59657;-57
2024/02/13 07:40:13;;;;;;;20.40;9.40;;;;;;;-147.86;100.00;-17609.17;105506;1261;73080;-57
2024/02/13 07:42:40;;;;;;;19.20;9.40;;;;;;;-147.86;100.00;-17546.91;105328;1260;63131;-59
2024/02/13 07:45:08;;;;;;;24.20;9.60;;;;;;;-147.86;100.00;-17247.17;105338;1260;71401;-60
2024/02/13 07:47:39;;;;;;;21.20;9.50;;;;;;;-147.86;100.00;-16697.07;105346;1260;60747;-60
2024/02/13 07:50:09;;;;;;;15.20;8.40;;;;;;;-147.86;100.00;-16181.88;105485;1263;59616;-59
2024/02/13 07:52:37;;;;;;;20.90;10.10;;;;;;;-147.86;100.00;-15457.59;105244;1264;71766;-58
2024/02/13 07:55:06;;;;;;;21.50;10.70;;;;;;;-147.86;100.00;-14620.52;105373;1263;64549;-56
2024/02/13 07:57:35;;;;;;;18.40;10.50;;;;;;;-147.86;100.00;-14055.67;105934;1256;71350;-58
2024/02/13 08:00:04;;;;;;;19.10;9.80;;;;;;;-147.86;100.00;-13345.28;105911;1254;60435;-58
2024/02/13 08:02:33;;;;;;;19.60;9.30;;;;;;;-147.86;100.00;-12857.04;105972;1251;60015;-60
2024/02/13 08:05:01;;;;;;;18.40;10.10;;;;;;;-147.86;100.00;-12108.98;105935;1257;72962;-58
2024/02/13 08:07:28;;;;;;;16.70;10.60;;;;;;;-147.86;100.00;-11422.92;105998;1251;63258;-59
2024/02/13 08:09:56;;;;;;;17.40;10.50;;;;;;;-147.86;100.00;-10776.13;105906;1257;71436;-59
2024/02/13 08:12:24;;;;;;;19.00;10.10;;;;;;;-147.86;100.00;-10160.52;105898;1257;60442;-59
2024/02/13 08:56:41;;;;;;;25.10;11.60;;;;;;;-147.86;100.00;14674.37;102488;1291;604972;-60
2024/02/13 08:59:09;;;;;;;14.80;10.20;;;;;;;-147.86;100.00;-6695.03;105089;1277;61859;-59
2024/02/13 09:01:36;;;;;;;18.70;11.10;;;;;;;-147.86;100.00;-4807.02;105100;1264;60051;-60
2024/02/13 09:04:03;;;;;;;24.30;12.90;;;;;;;-147.86;100.00;-4638.38;105075;1269;72037;-61
2024/02/13 09:06:31;;;;;;;19.60;12.80;;;;;;;-147.86;100.00;-4419.06;105135;1269;64618;-61
2024/02/13 09:09:00;;;;;;;22.90;13.50;;;;;;;-147.86;100.00;-4465.85;104917;1277;349219;-60
2024/02/13 09:11:30;;;;;;;18.80;12.10;;;;;;;-147.86;100.00;-4389.28;105231;1267;61958;-61
2024/02/13 09:13:58;;;;;;;24.30;12.60;;;;;;;-147.86;100.00;-4613.20;105238;1263;60210;-57
2024/02/13 09:16:25;;;;;;;23.70;12.40;;;;;;;-147.86;100.00;-4398.58;105160;1266;72385;-54
2024/02/13 09:18:54;;;;;;;24.50;13.90;;;;;;;-147.86;100.00;-4597.78;105254;1268;64397;-56
2024/02/13 09:21:22;;;;;;;20.70;13.20;;;;;;;-147.86;100.00;-4862.70;105278;1266;74187;-59
2024/02/13 09:23:49;;;;;;;21.30;12.20;;;;;;;-147.86;100.00;-4845.32;105223;1267;63356;-61
2024/02/13 09:26:16;;;;;;;19.00;12.00;;;;;;;-147.86;100.00;-4554.43;105242;1264;60288;-59
2024/02/13 09:28:46;;;;;;;24.10;14.70;;;;;;;-147.86;100.00;-3990.03;105226;1267;73054;-60
2024/02/13 09:31:15;;;;;;;19.80;13.30;;;;;;;-147.86;100.00;-3524.55;105192;1264;65871;-60
2024/02/13 09:33:42;;;;;;;29.70;17.10;;;;;;;-147.86;100.00;-2732.49;105044;1264;74131;-57
2024/02/13 09:36:11;;;;;;;23.50;13.70;;;;;;;-147.86;100.00;-1972.79;105203;1267;60237;-60
2024/02/13 09:38:40;;;;;;;20.60;12.80;;;;;;;-147.86;100.00;-1701.82;105181;1267;59657;-58
2024/02/13 09:41:09;;;;;;;26.10;13.80;;;;;;;-147.86;100.00;-1497.84;105185;1267;74396;-60
2024/02/13 09:43:36;;;;;;;24.40;13.70;;;;;;;-147.86;100.00;-1325.95;105202;1276;66145;-58
2024/02/13 09:46:10;;;;;;;19.10;12.70;;;;;;;-147.86;100.00;-1308.44;105147;1264;72758;-60
2024/02/13 09:48:37;;;;;;;19.90;13.40;;;;;;;-147.86;100.00;-705.72;105206;1264;60624;-58
2024/02/13 09:51:08;;;;;;;25.80;15.00;;;;;;;-147.86;100.00;-394.06;105238;1264;60326;-60
2024/02/13 09:53:40;;;;;;;22.60;13.40;;;;;;;-147.86;100.00;-432.71;105191;1264;73170;-60
2024/02/13 09:56:11;;;;;;;20.50;13.60;;;;;;;-147.86;100.00;-125.96;105333;1267;64972;-57
2024/02/13 09:58:38;;;;;;;25.50;13.60;;;;;;;-147.86;100.00;115.28;105189;1264;73810;-61
2024/02/13 10:01:05;;;;;;;26.50;13.80;;;;;;;-147.86;100.00;832.07;105238;1267;63144;-59
2024/02/13 10:03:36;;;;;;;22.00;12.60;;;;;;;-147.86;100.00;1184.99;105299;1264;59837;-59
2024/02/13 10:06:04;;;;;;;30.10;13.70;;;;;;;-147.86;100.00;1499.23;105192;1267;74251;-59
2024/02/13 10:08:34;;;;;;;22.70;13.40;;;;;;;-147.86;100.00;2185.73;105276;1263;63944;-60
2024/02/13 10:11:05;;;;;;;22.40;14.20;;;;;;;-147.86;100.00;2590.71;105175;1267;73570;-59
2024/02/13 10:13:35;;;;;;;22.60;13.50;;;;;;;-147.86;100.00;3056.15;105187;1267;63753;-60
2024/02/13 10:16:03;;;;;;;22.10;12.70;;;;;;;-147.86;100.00;3405.70;105152;1263;59817;-56
2024/02/13 10:18:33;;;;;;;23.70;13.80;;;;;;;-147.86;100.00;3707.61;105618;1257;73313;-59
2024/02/13 10:21:04;;;;;;;22.20;13.70;;;;;;;-147.86;100.00;3961.49;105700;1260;65055;-61
2024/02/13 10:23:33;;;;;;;18.90;12.10;;;;;;;-147.86;100.00;4271.22;105617;1257;71645;-61
2024/02/13 10:26:12;;;;;;;22.10;12.70;;;;;;;-147.86;100.00;4781.03;105623;1261;63056;-60
2024/02/13 10:28:54;;;;;;;21.90;12.00;;;;;;;-147.86;100.00;5415.35;105552;1257;60358;-58
2024/02/13 10:31:23;;;;;;;24.20;14.60;;;;;;;-147.86;100.00;6147.22;105677;1256;73172;-56
2024/02/13 10:33:50;;;;;;;26.40;15.00;;;;;;;-147.86;100.00;6305.83;105645;1261;63480;-58
2024/02/13 10:36:18;;;;;;;19.30;13.50;;;;;;;-147.86;100.00;6662.70;105634;1258;73847;-60
2024/02/13 10:38:48;;;;;;;26.40;13.30;;;;;;;-147.86;100.00;7141.83;105572;1260;61887;-59
2024/02/13 10:41:22;;;;;;;22.10;13.60;;;;;;;-147.86;100.00;7482.89;105574;1257;61503;-59
2024/02/13 10:43:55;;;;;;;32.90;14.30;;;;;;;-147.86;100.00;7699.13;105706;1261;74037;-58
2024/02/13 10:46:23;;;;;;;23.20;15.00;;;;;;;-147.86;100.00;7243.97;105602;1260;65697;-59
2024/02/13 10:49:21;;;;;;;28.60;14.60;;;;;;;-147.86;100.00;6467.27;105633;1257;72862;-59
2024/02/13 10:51:49;;;;;;;31.60;15.10;;;;;;;-147.86;100.00;7003.71;105627;1259;62279;-59
2024/02/13 10:54:18;;;;;;;26.10;14.40;;;;;;;-147.86;100.00;5662.80;105598;1259;60507;-59
2024/02/13 10:56:45;;;;;;;25.10;14.70;;;;;;;-147.86;100.00;5234.67;105554;1257;73068;-59
2024/02/13 10:59:12;;;;;;;27.80;16.20;;;;;;;-147.86;100.00;4893.81;105637;1260;66055;-60
2024/02/13 11:01:41;;;;;;;28.60;14.80;;;;;;;-147.86;100.00;4923.65;105552;1258;72965;-58
2024/02/13 11:04:09;;;;;;;28.90;16.50;;;;;;;-147.86;100.00;5358.36;105511;1260;63227;-60
2024/02/13 11:06:36;;;;;;;29.30;16.20;;;;;;;-147.86;100.00;5827.24;105484;1256;61918;-61
2024/02/13 11:09:12;;;;;;;34.30;16.00;;;;;;;-147.86;100.00;6331.45;105628;1257;73049;-59
2024/02/13 11:11:43;;;;;;;24.30;16.20;;;;;;;-147.86;100.00;7646.30;105653;1259;63869;-59
2024/02/13 11:14:17;;;;;;;39.40;18.60;;;;;;;-147.86;100.00;8538.85;105610;1257;72489;-57
2024/02/13 11:16:58;;;;;;;37.20;17.10;;;;;;;-147.86;100.00;9494.13;105738;1260;62210;-60
2024/02/13 11:19:39;;;;;;;37.80;17.10;;;;;;;-147.86;100.00;10543.26;105686;1257;59772;-59
2024/02/13 11:22:14;;;;;;;39.00;19.80;;;;;;;-147.86;100.00;11443.10;105634;1259;73068;-58
2024/02/13 11:24:43;;;;;;;36.00;18.50;;;;;;;-147.86;100.00;11594.88;105643;1258;66067;-61
2024/02/13 11:27:14;;;;;;;27.60;16.70;;;;;;;-147.86;100.00;12388.89;105611;1255;74009;-58
2024/02/13 11:30:02;;;;;;;26.60;16.70;;;;;;;-147.86;100.00;13848.42;105645;1259;60590;-61
2024/02/13 11:32:36;;;;;;;38.00;17.90;;;;;;;-147.86;100.00;14489.72;105664;1257;61853;-61
2024/02/13 11:35:10;;;;;;;39.40;18.10;;;;;;;-147.86;100.00;15294.81;105618;1259;73971;-60
2024/02/13 11:37:37;;;;;;;25.60;14.80;;;;;;;-147.86;100.00;16345.07;105558;1262;65440;-60
2024/02/13 11:40:05;;;;;;;26.00;15.40;;;;;;;-147.86;100.00;17221.34;105615;1256;72943;-60
2024/02/13 11:42:34;;;;;;;26.20;16.20;;;;;;;-147.86;100.00;18440.99;105620;1260;61183;-60
2024/02/13 11:45:01;;;;;;;23.90;15.10;;;;;;;-147.86;100.00;19772.74;105649;1256;60483;-60
2024/02/13 11:47:29;;;;;;;28.70;16.10;;;;;;;-147.86;100.00;21103.39;105648;1258;72874;-60
2024/02/13 11:49:57;;;;;;;26.70;17.30;;;;;;;-147.86;100.00;22247.93;105721;1257;65722;-61
2024/02/13 11:52:24;;;;;;;30.70;15.70;;;;;;;-147.86;100.00;23399.42;105713;1257;72517;-58
2024/02/13 11:54:51;;;;;;;26.00;16.80;;;;;;;-147.86;100.00;24482.67;105622;1259;61248;-61
2024/02/13 11:57:19;;;;;;;35.10;19.10;;;;;;;-147.86;100.00;25479.29;105637;1257;60151;-59
2024/02/13 11:59:56;;;;;;;22.50;14.70;;;;;;;-147.86;100.00;26455.88;105600;1259;74204;-61
2024/02/13 12:02:23;;;;;;;24.60;16.30;;;;;;;-147.86;100.00;27449.11;105625;1257;64024;-59
2024/02/13 12:04:51;;;;;;;29.40;17.30;;;;;;;-147.86;100.00;28058.34;105708;1257;73912;-60
2024/02/13 12:07:19;;;;;;;27.40;16.20;;;;;;;-147.86;100.00;28849.09;105665;1259;62870;-61
2024/02/13 12:09:50;;;;;;;33.70;17.10;;;;;;;-147.86;100.00;29619.70;105616;1256;61226;-61
2024/02/13 12:12:17;;;;;;;28.70;16.80;;;;;;;-147.86;100.00;30575.47;105597;1257;72725;-59
2024/02/13 12:14:44;;;;;;;24.00;15.20;;;;;;;-147.86;100.00;31396.01;105655;1259;64567;-59
2024/02/13 12:17:12;;;;;;;26.30;15.90;;;;;;;-147.86;100.00;32172.60;105640;1256;73874;-60
2024/02/13 12:19:39;;;;;;;34.10;19.40;;;;;;;-147.86;100.00;32864.58;105639;1259;63238;-62
2024/02/13 12:22:10;;;;;;;24.20;14.90;;;;;;;-147.86;100.00;33420.37;105669;1256;61693;-61
2024/02/13 12:24:40;;;;;;;26.70;15.30;;;;;;;-147.86;100.00;33959.44;105599;1257;74556;-60
2024/02/13 12:27:12;;;;;;;27.00;15.30;;;;;;;-147.86;100.00;34490.38;105650;1259;65993;-58
2024/02/13 12:29:39;;;;;;;23.90;15.60;;;;;;;-147.86;100.00;35004.59;105632;1259;72754;-60
2024/02/13 12:32:15;;;;;;;23.10;15.20;;;;;;;-147.86;100.00;35425.45;105639;1260;61198;-58
2024/02/13 12:34:46;;;;;;;26.90;16.50;;;;;;;-147.86;100.00;35901.48;105633;1259;59627;-57
2024/02/13 12:37:15;;;;;;;21.40;14.70;;;;;;;-147.86;100.00;36328.70;105635;1259;73384;-60
2024/02/13 12:39:43;;;;;;;24.50;15.60;;;;;;;-147.86;100.00;36695.77;105643;1257;64584;-61
2024/02/13 12:42:13;;;;;;;24.50;17.00;;;;;;;-147.86;100.00;36895.14;105600;1256;73983;-60
2024/02/13 12:44:40;;;;;;;32.70;17.40;;;;;;;-147.86;100.00;37048.01;105646;1259;62060;-60
2024/02/13 12:47:07;;;;;;;26.90;18.10;;;;;;;-147.86;100.00;37213.00;105670;1254;60236;-60
2024/02/13 12:49:36;;;;;;;24.20;16.90;;;;;;;-147.86;100.00;37362.75;105651;1257;74092;-60
2024/02/13 12:52:05;;;;;;;31.20;18.00;;;;;;;-147.86;100.00;37293.15;105637;1260;66190;-60
2024/02/13 12:54:35;;;;;;;28.30;17.10;;;;;;;-147.86;100.00;37135.98;105714;1257;71571;-59
2024/02/13 12:57:03;;;;;;;24.30;16.40;;;;;;;-147.86;100.00;37031.20;105655;1259;63457;-59
2024/02/13 12:59:38;;;;;;;24.80;15.60;;;;;;;-147.86;100.00;36884.59;105651;1257;61038;-57
2024/02/13 13:02:08;;;;;;;23.90;15.20;;;;;;;-147.86;100.00;36655.11;105614;1259;73020;-60
2024/02/13 13:04:35;;;;;;;27.10;16.00;;;;;;;-147.86;100.00;36534.71;105623;1259;66339;-59